sensor_id;sensor_type;location;lat;lon;timestamp;pressure;altitude;pressure_sealevel;temperature;humidity
49393;BME280;35268;42.642;23.308;2022-10-19T00:01:19;94542.41;;;7.08;53.63
49393;BME280;35268;42.642;23.308;2022-10-19T00:03:46;94543.22;;;7.03;53.86
49393;BME280;35268;42.642;23.308;2022-10-19T00:06:15;94541.41;;;6.99;53.68
49393;BME280;35268;42.642;23.308;2022-10-19T00:08:42;94528.97;;;6.94;53.91
49393;BME280;35268;42.642;23.308;2022-10-19T00:11:08;94529.50;;;6.91;54.11
49393;BME280;35268;42.642;23.308;2022-10-19T00:13:34;94541.47;;;6.89;53.71
49393;BME280;35268;42.642;23.308;2022-10-19T00:16:00;94535.13;;;6.85;54.23
49393;BME280;35268;42.642;23.308;2022-10-19T00:18:26;94524.25;;;6.81;54.15
49393;BME280;35268;42.642;23.308;2022-10-19T00:20:51;94530.66;;;6.75;55.14
49393;BME280;35268;42.642;23.308;2022-10-19T00:23:17;94523.78;;;6.74;54.76
49393;BME280;35268;42.642;23.308;2022-10-19T00:25:42;94516.88;;;6.73;54.17
49393;BME280;35268;42.642;23.308;2022-10-19T00:28:18;94517.44;;;6.70;54.23
49393;BME280;35268;42.642;23.308;2022-10-19T00:30:44;94508.41;;;6.71;54.57
49393;BME280;35268;42.642;23.308;2022-10-19T00:33:09;94505.28;;;6.63;54.80
49393;BME280;35268;42.642;23.308;2022-10-19T00:35:39;94499.19;;;6.63;55.00
49393;BME280;35268;42.642;23.308;2022-10-19T00:38:04;94493.41;;;6.56;55.17
49393;BME280;35268;42.642;23.308;2022-10-19T00:40:36;94487.56;;;6.54;55.45
49393;BME280;35268;42.642;23.308;2022-10-19T00:43:02;94485.19;;;6.52;55.47
49393;BME280;35268;42.642;23.308;2022-10-19T00:45:27;94479.91;;;6.52;55.34
49393;BME280;35268;42.642;23.308;2022-10-19T00:47:53;94478.84;;;6.48;55.57
49393;BME280;35268;42.642;23.308;2022-10-19T00:50:19;94472.53;;;6.44;55.41
49393;BME280;35268;42.642;23.308;2022-10-19T00:52:45;94470.41;;;6.46;55.93
49393;BME280;35268;42.642;23.308;2022-10-19T00:55:10;94470.91;;;6.43;56.17
49393;BME280;35268;42.642;23.308;2022-10-19T00:57:38;94473.59;;;6.38;55.94
49393;BME280;35268;42.642;23.308;2022-10-19T01:00:05;94475.44;;;6.42;53.80
49393;BME280;35268;42.642;23.308;2022-10-19T01:02:31;94471.97;;;6.47;53.66
49393;BME280;35268;42.642;23.308;2022-10-19T01:04:57;94468.78;;;6.50;53.18
49393;BME280;35268;42.642;23.308;2022-10-19T01:07:24;94459.75;;;6.56;52.74
49393;BME280;35268;42.642;23.308;2022-10-19T01:09:50;94454.44;;;6.56;52.88
49393;BME280;35268;42.642;23.308;2022-10-19T01:12:33;94447.28;;;6.62;53.12
49393;BME280;35268;42.642;23.308;2022-10-19T01:20:32;94440.44;;;6.56;54.94
49393;BME280;35268;42.642;23.308;2022-10-19T01:34:19;94432.28;;;6.37;55.87
49393;BME280;35268;42.642;23.308;2022-10-19T01:39:51;94426.78;;;6.28;56.12
49393;BME280;35268;42.642;23.308;2022-10-19T01:42:25;94424.44;;;6.21;56.15
49393;BME280;35268;42.642;23.308;2022-10-19T01:48:09;94418.09;;;6.12;55.92
49393;BME280;35268;42.642;23.308;2022-10-19T01:50:40;94421.56;;;6.13;55.59
49393;BME280;35268;42.642;23.308;2022-10-19T01:53:07;94420.75;;;6.12;55.45
49393;BME280;35268;42.642;23.308;2022-10-19T01:55:36;94421.31;;;6.09;55.54
49393;BME280;35268;42.642;23.308;2022-10-19T01:58:06;94410.97;;;6.08;56.27
49393;BME280;35268;42.642;23.308;2022-10-19T02:00:36;94417.63;;;6.05;56.48
49393;BME280;35268;42.642;23.308;2022-10-19T02:03:04;94419.75;;;6.03;56.75
49393;BME280;35268;42.642;23.308;2022-10-19T02:05:31;94417.63;;;6.00;56.96
49393;BME280;35268;42.642;23.308;2022-10-19T02:08:04;94416.06;;;5.99;56.68
49393;BME280;35268;42.642;23.308;2022-10-19T02:10:31;94408.91;;;5.94;56.57
49393;BME280;35268;42.642;23.308;2022-10-19T02:13:01;94416.31;;;5.92;56.97
49393;BME280;35268;42.642;23.308;2022-10-19T02:15:28;94408.38;;;5.87;57.15
49393;BME280;35268;42.642;23.308;2022-10-19T02:17:57;94406.56;;;5.82;57.13
49393;BME280;35268;42.642;23.308;2022-10-19T02:20:26;94416.06;;;5.83;57.46
49393;BME280;35268;42.642;23.308;2022-10-19T02:22:52;94406.81;;;5.81;57.55
49393;BME280;35268;42.642;23.308;2022-10-19T02:25:18;94408.94;;;5.79;57.51
49393;BME280;35268;42.642;23.308;2022-10-19T02:27:44;94402.06;;;5.73;57.85
49393;BME280;35268;42.642;23.308;2022-10-19T02:30:15;94408.41;;;5.72;58.09
49393;BME280;35268;42.642;23.308;2022-10-19T02:32:42;94396.53;;;5.69;58.14
49393;BME280;35268;42.642;23.308;2022-10-19T02:35:09;94399.72;;;5.66;58.23
49393;BME280;35268;42.642;23.308;2022-10-19T02:37:35;94404.50;;;5.64;58.26
49393;BME280;35268;42.642;23.308;2022-10-19T02:40:02;94398.16;;;5.60;58.48
49393;BME280;35268;42.642;23.308;2022-10-19T02:42:35;94407.13;;;5.59;58.53
49393;BME280;35268;42.642;23.308;2022-10-19T02:45:07;94402.91;;;5.58;58.72
49393;BME280;35268;42.642;23.308;2022-10-19T02:50:18;94408.47;;;5.51;58.96
49393;BME280;35268;42.642;23.308;2022-10-19T02:52:44;94396.31;;;5.50;58.71
49393;BME280;35268;42.642;23.308;2022-10-19T02:55:10;94394.44;;;5.51;58.23
49393;BME280;35268;42.642;23.308;2022-10-19T02:57:35;94399.47;;;5.52;57.92
49393;BME280;35268;42.642;23.308;2022-10-19T03:00:05;94391.28;;;5.54;58.23
49393;BME280;35268;42.642;23.308;2022-10-19T03:02:32;94393.66;;;5.50;58.01
49393;BME280;35268;42.642;23.308;2022-10-19T03:04:57;94382.56;;;5.48;58.00
49393;BME280;35268;42.642;23.308;2022-10-19T03:07:23;94391.84;;;5.46;57.97
49393;BME280;35268;42.642;23.308;2022-10-19T03:09:48;94391.31;;;5.43;57.90
49393;BME280;35268;42.642;23.308;2022-10-19T03:12:14;94392.09;;;5.44;57.98
49393;BME280;35268;42.642;23.308;2022-10-19T03:14:40;94391.31;;;5.43;57.68
49393;BME280;35268;42.642;23.308;2022-10-19T03:17:05;94399.75;;;5.46;57.50
49393;BME280;35268;42.642;23.308;2022-10-19T03:19:31;94397.66;;;5.48;57.13
49393;BME280;35268;42.642;23.308;2022-10-19T03:21:58;94399.22;;;5.49;57.47
49393;BME280;35268;42.642;23.308;2022-10-19T03:24:23;94398.44;;;5.48;57.36
49393;BME280;35268;42.642;23.308;2022-10-19T03:26:48;94398.16;;;5.50;57.36
49393;BME280;35268;42.642;23.308;2022-10-19T03:29:14;94400.00;;;5.49;57.44
49393;BME280;35268;42.642;23.308;2022-10-19T03:31:39;94402.38;;;5.51;57.57
49393;BME280;35268;42.642;23.308;2022-10-19T03:34:05;94404.50;;;5.49;58.04
49393;BME280;35268;42.642;23.308;2022-10-19T03:36:35;94398.44;;;5.48;57.94
49393;BME280;35268;42.642;23.308;2022-10-19T03:39:04;94390.50;;;5.43;58.03
49393;BME280;35268;42.642;23.308;2022-10-19T03:41:34;94384.16;;;5.44;58.11
49393;BME280;35268;42.642;23.308;2022-10-19T03:44:00;94388.13;;;5.41;58.26
49393;BME280;35268;42.642;23.308;2022-10-19T03:46:26;94378.09;;;5.38;58.46
49393;BME280;35268;42.642;23.308;2022-10-19T03:48:52;94379.69;;;5.39;58.45
49393;BME280;35268;42.642;23.308;2022-10-19T03:51:19;94381.00;;;5.37;58.66
49393;BME280;35268;42.642;23.308;2022-10-19T03:53:45;94379.69;;;5.39;58.51
49393;BME280;35268;42.642;23.308;2022-10-19T03:56:16;94381.81;;;5.37;58.71
49393;BME280;35268;42.642;23.308;2022-10-19T03:58:43;94374.91;;;5.36;59.11
49393;BME280;35268;42.642;23.308;2022-10-19T04:01:14;94367.78;;;5.32;59.05
49393;BME280;35268;42.642;23.308;2022-10-19T04:03:40;94378.88;;;5.29;58.81
49393;BME280;35268;42.642;23.308;2022-10-19T04:06:08;94368.88;;;5.26;58.89
49393;BME280;35268;42.642;23.308;2022-10-19T04:08:34;94380.72;;;5.23;58.40
49393;BME280;35268;42.642;23.308;2022-10-19T04:11:05;94389.22;;;5.25;58.61
49393;BME280;35268;42.642;23.308;2022-10-19T04:13:32;94386.84;;;5.23;58.98
49393;BME280;35268;42.642;23.308;2022-10-19T04:15:58;94380.72;;;5.23;59.16
49393;BME280;35268;42.642;23.308;2022-10-19T04:18:24;94375.47;;;5.13;59.82
49393;BME280;35268;42.642;23.308;2022-10-19T04:21:00;94371.00;;;5.13;59.99
49393;BME280;35268;42.642;23.308;2022-10-19T04:23:28;94370.19;;;5.13;60.06
49393;BME280;35268;42.642;23.308;2022-10-19T04:26:00;94361.47;;;5.12;60.06
49393;BME280;35268;42.642;23.308;2022-10-19T04:28:26;94362.78;;;5.15;59.82
49393;BME280;35268;42.642;23.308;2022-10-19T04:30:52;94358.31;;;5.15;59.79
49393;BME280;35268;42.642;23.308;2022-10-19T04:33:18;94363.31;;;5.12;60.27
49393;BME280;35268;42.642;23.308;2022-10-19T04:35:43;94346.69;;;5.11;60.48
49393;BME280;35268;42.642;23.308;2022-10-19T04:38:08;94350.09;;;5.12;60.00
49393;BME280;35268;42.642;23.308;2022-10-19T04:40:35;94358.81;;;5.12;60.09
49393;BME280;35268;42.642;23.308;2022-10-19T04:43:01;94347.47;;;5.12;60.35
49393;BME280;35268;42.642;23.308;2022-10-19T04:45:26;94349.84;;;5.13;60.47
49393;BME280;35268;42.642;23.308;2022-10-19T04:47:53;94355.94;;;5.14;60.25
49393;BME280;35268;42.642;23.308;2022-10-19T04:50:21;94360.44;;;5.13;60.27
49393;BME280;35268;42.642;23.308;2022-10-19T04:52:46;94365.41;;;5.15;60.34
49393;BME280;35268;42.642;23.308;2022-10-19T04:55:12;94361.19;;;5.19;60.62
49393;BME280;35268;42.642;23.308;2022-10-19T04:57:37;94366.75;;;5.17;61.12
49393;BME280;35268;42.642;23.308;2022-10-19T05:00:03;94364.91;;;5.18;61.51
49393;BME280;35268;42.642;23.308;2022-10-19T05:02:29;94367.53;;;5.18;61.49
49393;BME280;35268;42.642;23.308;2022-10-19T05:04:54;94357.50;;;5.15;61.86
49393;BME280;35268;42.642;23.308;2022-10-19T05:07:19;94353.03;;;5.15;61.68
49393;BME280;35268;42.642;23.308;2022-10-19T05:09:45;94362.25;;;5.18;61.03
49393;BME280;35268;42.642;23.308;2022-10-19T05:12:10;94364.09;;;5.22;61.15
49393;BME280;35268;42.642;23.308;2022-10-19T05:14:36;94366.47;;;5.24;61.49
49393;BME280;35268;42.642;23.308;2022-10-19T05:17:01;94358.28;;;5.26;62.32
49393;BME280;35268;42.642;23.308;2022-10-19T05:19:27;94356.44;;;5.26;62.34
49393;BME280;35268;42.642;23.308;2022-10-19T05:21:52;94349.81;;;5.29;62.20
49393;BME280;35268;42.642;23.308;2022-10-19T05:24:18;94349.81;;;5.34;62.31
49393;BME280;35268;42.642;23.308;2022-10-19T05:26:43;94342.69;;;5.39;62.37
49393;BME280;35268;42.642;23.308;2022-10-19T05:29:10;94352.97;;;5.46;62.16
49393;BME280;35268;42.642;23.308;2022-10-19T05:31:36;94347.66;;;5.51;62.36
49393;BME280;35268;42.642;23.308;2022-10-19T05:34:02;94350.56;;;5.55;62.71
49393;BME280;35268;42.642;23.308;2022-10-19T05:36:38;94357.41;;;5.61;62.75
49393;BME280;35268;42.642;23.308;2022-10-19T05:39:11;94360.56;;;5.68;62.25
49393;BME280;35268;42.642;23.308;2022-10-19T05:41:37;94362.13;;;5.74;61.84
49393;BME280;35268;42.642;23.308;2022-10-19T05:44:04;94354.72;;;5.76;61.64
49393;BME280;35268;42.642;23.308;2022-10-19T05:46:31;94359.44;;;5.85;61.28
49393;BME280;35268;42.642;23.308;2022-10-19T05:48:57;94364.75;;;5.85;61.31
49393;BME280;35268;42.642;23.308;2022-10-19T05:51:25;94360.75;;;5.92;61.07
49393;BME280;35268;42.642;23.308;2022-10-19T05:53:52;94358.34;;;6.01;60.66
49393;BME280;35268;42.642;23.308;2022-10-19T05:56:21;94369.41;;;6.08;60.77
49393;BME280;35268;42.642;23.308;2022-10-19T05:58:47;94363.03;;;6.14;61.16
49393;BME280;35268;42.642;23.308;2022-10-19T06:01:13;94368.84;;;6.21;60.59
49393;BME280;35268;42.642;23.308;2022-10-19T06:03:39;94361.69;;;6.27;60.59
49393;BME280;35268;42.642;23.308;2022-10-19T06:06:06;94359.75;;;6.33;60.34
49393;BME280;35268;42.642;23.308;2022-10-19T06:08:33;94362.34;;;6.43;60.12
49393;BME280;35268;42.642;23.308;2022-10-19T06:11:06;94363.38;;;6.52;59.87
49393;BME280;35268;42.642;23.308;2022-10-19T06:13:32;94373.13;;;6.57;59.86
49393;BME280;35268;42.642;23.308;2022-10-19T06:15:57;94371.50;;;6.61;59.95
49393;BME280;35268;42.642;23.308;2022-10-19T06:18:22;94377.84;;;6.65;59.70
49393;BME280;35268;42.642;23.308;2022-10-19T06:20:51;94379.97;;;6.68;59.77
49393;BME280;35268;42.642;23.308;2022-10-19T06:23:17;94386.03;;;6.69;59.94
49393;BME280;35268;42.642;23.308;2022-10-19T06:25:43;94381.78;;;6.73;59.93
49393;BME280;35268;42.642;23.308;2022-10-19T06:28:08;94383.06;;;6.80;59.82
49393;BME280;35268;42.642;23.308;2022-10-19T06:30:37;94389.13;;;6.86;59.86
49393;BME280;35268;42.642;23.308;2022-10-19T06:33:03;94397.25;;;6.95;59.65
49393;BME280;35268;42.642;23.308;2022-10-19T06:35:28;94394.78;;;7.03;59.22
49393;BME280;35268;42.642;23.308;2022-10-19T06:37:55;94387.03;;;7.12;58.68
49393;BME280;35268;42.642;23.308;2022-10-19T06:40:22;94392.28;;;7.22;58.35
49393;BME280;35268;42.642;23.308;2022-10-19T06:42:48;94389.81;;;7.31;58.15
49393;BME280;35268;42.642;23.308;2022-10-19T06:45:13;94383.84;;;7.44;57.82
49393;BME280;35268;42.642;23.308;2022-10-19T06:47:45;94382.72;;;7.51;57.81
49393;BME280;35268;42.642;23.308;2022-10-19T06:50:10;94379.13;;;7.66;57.54
49393;BME280;35268;42.642;23.308;2022-10-19T06:52:36;94378.22;;;7.75;57.33
49393;BME280;35268;42.642;23.308;2022-10-19T06:55:02;94369.63;;;7.83;56.41
49393;BME280;35268;42.642;23.308;2022-10-19T06:57:28;94374.84;;;7.94;55.52
49393;BME280;35268;42.642;23.308;2022-10-19T06:59:54;94367.03;;;8.02;54.65
49393;BME280;35268;42.642;23.308;2022-10-19T07:02:19;94356.81;;;8.15;54.47
49393;BME280;35268;42.642;23.308;2022-10-19T07:04:45;94357.19;;;8.27;54.25
49393;BME280;35268;42.642;23.308;2022-10-19T07:07:11;94357.41;;;8.31;54.54
49393;BME280;35268;42.642;23.308;2022-10-19T07:09:36;94360.44;;;8.43;54.07
49393;BME280;35268;42.642;23.308;2022-10-19T07:12:02;94355.84;;;8.49;53.97
49393;BME280;35268;42.642;23.308;2022-10-19T07:14:27;94360.31;;;8.53;53.85
49393;BME280;35268;42.642;23.308;2022-10-19T07:16:54;94355.72;;;8.59;53.89
49393;BME280;35268;42.642;23.308;2022-10-19T07:19:20;94361.16;;;8.68;53.21
49393;BME280;35268;42.642;23.308;2022-10-19T07:21:49;94359.72;;;8.75;53.10
49393;BME280;35268;42.642;23.308;2022-10-19T07:24:14;94357.75;;;8.81;53.04
49393;BME280;35268;42.642;23.308;2022-10-19T07:26:40;94357.91;;;8.90;52.99
49393;BME280;35268;42.642;23.308;2022-10-19T07:29:05;94347.97;;;8.95;52.75
49393;BME280;35268;42.642;23.308;2022-10-19T07:31:31;94354.78;;;9.01;52.91
49393;BME280;35268;42.642;23.308;2022-10-19T07:34:02;94347.03;;;9.05;53.06
49393;BME280;35268;42.642;23.308;2022-10-19T07:36:29;94351.97;;;9.12;52.62
49393;BME280;35268;42.642;23.308;2022-10-19T07:38:55;94346.00;;;9.20;52.37
49393;BME280;35268;42.642;23.308;2022-10-19T07:41:22;94350.34;;;9.30;52.14
49393;BME280;35268;42.642;23.308;2022-10-19T07:43:49;94343.34;;;9.34;52.00
49393;BME280;35268;42.642;23.308;2022-10-19T07:46:17;94347.88;;;9.33;52.49
49393;BME280;35268;42.642;23.308;2022-10-19T07:48:43;94340.31;;;9.40;51.63
49393;BME280;35268;42.642;23.308;2022-10-19T07:51:10;94332.66;;;9.53;51.61
49393;BME280;35268;42.642;23.308;2022-10-19T07:53:36;94330.09;;;9.61;51.61
49393;BME280;35268;42.642;23.308;2022-10-19T07:56:07;94318.56;;;9.66;51.45
49393;BME280;35268;42.642;23.308;2022-10-19T07:58:34;94330.47;;;9.82;50.79
49393;BME280;35268;42.642;23.308;2022-10-19T08:01:14;94318.28;;;9.95;50.48
49393;BME280;35268;42.642;23.308;2022-10-19T08:03:41;94314.59;;;10.05;50.20
49393;BME280;35268;42.642;23.308;2022-10-19T08:06:08;94304.81;;;10.14;49.88
49393;BME280;35268;42.642;23.308;2022-10-19T08:08:35;94307.16;;;10.30;49.65
49393;BME280;35268;42.642;23.308;2022-10-19T08:11:10;94311.97;;;10.41;50.10
49393;BME280;35268;42.642;23.308;2022-10-19T08:13:37;94307.72;;;10.54;49.49
49393;BME280;35268;42.642;23.308;2022-10-19T08:16:04;94312.34;;;10.62;49.02
49393;BME280;35268;42.642;23.308;2022-10-19T08:18:29;94310.22;;;10.73;48.95
49393;BME280;35268;42.642;23.308;2022-10-19T08:20:55;94314.69;;;10.87;49.10
49393;BME280;35268;42.642;23.308;2022-10-19T08:23:21;94307.72;;;10.99;48.04
49393;BME280;35268;42.642;23.308;2022-10-19T08:25:49;94311.09;;;11.14;48.58
49393;BME280;35268;42.642;23.308;2022-10-19T08:28:15;94305.03;;;11.22;48.00
49393;BME280;35268;42.642;23.308;2022-10-19T08:30:40;94302.59;;;11.34;47.29
49393;BME280;35268;42.642;23.308;2022-10-19T08:33:06;94296.97;;;11.44;47.17
49393;BME280;35268;42.642;23.308;2022-10-19T08:35:33;94296.88;;;11.58;47.07
49393;BME280;35268;42.642;23.308;2022-10-19T08:37:59;94287.66;;;11.73;46.73
49393;BME280;35268;42.642;23.308;2022-10-19T08:40:27;94284.16;;;11.95;45.37
49393;BME280;35268;42.642;23.308;2022-10-19T08:43:01;94287.97;;;12.20;45.01
49393;BME280;35268;42.642;23.308;2022-10-19T08:48:24;94279.97;;;12.73;42.87
49393;BME280;35268;42.642;23.308;2022-10-19T08:50:51;94278.66;;;12.96;42.69
49393;BME280;35268;42.642;23.308;2022-10-19T08:53:26;94281.78;;;13.16;42.16
49393;BME280;35268;42.642;23.308;2022-10-19T08:56:03;94274.66;;;13.29;42.05
49393;BME280;35268;42.642;23.308;2022-10-19T09:04:02;94273.41;;;13.82;40.98
49393;BME280;35268;42.642;23.308;2022-10-19T09:09:14;94277.31;;;14.14;40.28
49393;BME280;35268;42.642;23.308;2022-10-19T09:11:46;94263.25;;;14.17;40.43
49393;BME280;35268;42.642;23.308;2022-10-19T09:14:25;94262.69;;;14.33;40.28
49393;BME280;35268;42.642;23.308;2022-10-19T09:17:19;94278.38;;;14.43;39.94
49393;BME280;35268;42.642;23.308;2022-10-19T09:19:44;94267.09;;;14.58;39.36
49393;BME280;35268;42.642;23.308;2022-10-19T09:25:02;94250.06;;;14.75;39.96
49393;BME280;35268;42.642;23.308;2022-10-19T09:27:36;94268.44;;;14.85;39.25
49393;BME280;35268;42.642;23.308;2022-10-19T09:30:08;94255.59;;;14.91;39.36
49393;BME280;35268;42.642;23.308;2022-10-19T09:32:37;94272.16;;;14.93;38.90
49393;BME280;35268;42.642;23.308;2022-10-19T09:37:47;94267.94;;;14.92;38.92
49393;BME280;35268;42.642;23.308;2022-10-19T09:40:19;94276.22;;;14.99;38.34
49393;BME280;35268;42.642;23.308;2022-10-19T09:43:04;94276.47;;;15.07;38.11
49393;BME280;35268;42.642;23.308;2022-10-19T09:46:10;94271.44;;;15.05;38.44
49393;BME280;35268;42.642;23.308;2022-10-19T09:48:46;94272.13;;;15.14;38.16
49393;BME280;35268;42.642;23.308;2022-10-19T09:51:15;94262.63;;;15.17;37.67
49393;BME280;35268;42.642;23.308;2022-10-19T09:53:45;94269.56;;;15.18;37.38
49393;BME280;35268;42.642;23.308;2022-10-19T09:56:23;94271.03;;;15.28;37.96
49393;BME280;35268;42.642;23.308;2022-10-19T09:58:52;94266.47;;;15.40;37.10
49393;BME280;35268;42.642;23.308;2022-10-19T10:01:34;94256.44;;;15.50;36.74
49393;BME280;35268;42.642;23.308;2022-10-19T10:04:13;94270.44;;;15.55;37.66
49393;BME280;35268;42.642;23.308;2022-10-19T10:06:40;94258.88;;;15.55;36.98
49393;BME280;35268;42.642;23.308;2022-10-19T10:09:16;94264.03;;;15.60;35.70
49393;BME280;35268;42.642;23.308;2022-10-19T10:11:44;94251.06;;;15.62;36.63
49393;BME280;35268;42.642;23.308;2022-10-19T10:14:25;94253.63;;;15.71;35.65
49393;BME280;35268;42.642;23.308;2022-10-19T10:16:56;94249.19;;;15.75;35.65
49393;BME280;35268;42.642;23.308;2022-10-19T10:19:27;94233.50;;;15.77;35.82
49393;BME280;35268;42.642;23.308;2022-10-19T10:21:54;94244.16;;;15.86;34.68
49393;BME280;35268;42.642;23.308;2022-10-19T10:24:23;94220.50;;;15.91;34.75
49393;BME280;35268;42.642;23.308;2022-10-19T10:26:51;94226.91;;;15.99;34.43
49393;BME280;35268;42.642;23.308;2022-10-19T10:29:25;94222.84;;;16.05;33.06
49393;BME280;35268;42.642;23.308;2022-10-19T10:32:04;94222.63;;;16.10;31.35
49393;BME280;35268;42.642;23.308;2022-10-19T10:34:46;94219.50;;;16.08;32.21
49393;BME280;35268;42.642;23.308;2022-10-19T10:37:37;94219.38;;;16.17;31.47
49393;BME280;35268;42.642;23.308;2022-10-19T10:40:05;94205.34;;;16.23;31.73
49393;BME280;35268;42.642;23.308;2022-10-19T10:42:43;94198.16;;;16.28;31.33
49393;BME280;35268;42.642;23.308;2022-10-19T10:45:36;94199.25;;;16.39;30.00
49393;BME280;35268;42.642;23.308;2022-10-19T10:50:44;94187.75;;;16.54;30.45
49393;BME280;35268;42.642;23.308;2022-10-19T10:53:39;94185.44;;;16.69;29.22
49393;BME280;35268;42.642;23.308;2022-10-19T10:56:22;94179.22;;;16.80;30.26
49393;BME280;35268;42.642;23.308;2022-10-19T10:58:59;94183.09;;;16.95;28.84
49393;BME280;35268;42.642;23.308;2022-10-19T11:01:36;94171.88;;;16.93;29.24
49393;BME280;35268;42.642;23.308;2022-10-19T11:04:13;94164.78;;;17.01;29.40
49393;BME280;35268;42.642;23.308;2022-10-19T11:06:44;94168.78;;;17.07;29.13
49393;BME280;35268;42.642;23.308;2022-10-19T11:09:22;94153.06;;;17.09;28.41
49393;BME280;35268;42.642;23.308;2022-10-19T11:11:50;94166.38;;;17.18;28.00
49393;BME280;35268;42.642;23.308;2022-10-19T11:16:58;94159.09;;;17.34;29.04
49393;BME280;35268;42.642;23.308;2022-10-19T11:19:39;94154.56;;;17.38;28.88
49393;BME280;35268;42.642;23.308;2022-10-19T11:22:28;94155.59;;;17.50;28.92
49393;BME280;35268;42.642;23.308;2022-10-19T11:28:27;94149.41;;;17.65;27.25
49393;BME280;35268;42.642;23.308;2022-10-19T11:31:05;94141.75;;;17.67;26.71
49393;BME280;35268;42.642;23.308;2022-10-19T11:33:53;94137.47;;;17.66;26.18
49393;BME280;35268;42.642;23.308;2022-10-19T11:49:54;94131.31;;;18.01;26.21
49393;BME280;35268;42.642;23.308;2022-10-19T11:53:19;94120.69;;;18.08;25.63
49393;BME280;35268;42.642;23.308;2022-10-19T11:55:31;94113.31;;;18.05;26.20
49393;BME280;35268;42.642;23.308;2022-10-19T12:01:00;94104.38;;;18.20;25.87
49393;BME280;35268;42.642;23.308;2022-10-19T12:03:46;94100.69;;;18.29;25.40
49393;BME280;35268;42.642;23.308;2022-10-19T12:06:27;94099.59;;;18.33;25.22
49393;BME280;35268;42.642;23.308;2022-10-19T12:14:24;94102.47;;;18.63;24.58
49393;BME280;35268;42.642;23.308;2022-10-19T12:16:57;94089.41;;;18.65;24.75
49393;BME280;35268;42.642;23.308;2022-10-19T12:19:28;94102.75;;;18.78;26.52
49393;BME280;35268;42.642;23.308;2022-10-19T12:22:01;94107.94;;;18.87;25.31
49393;BME280;35268;42.642;23.308;2022-10-19T12:24:29;94093.91;;;19.00;25.29
49393;BME280;35268;42.642;23.308;2022-10-19T12:26:55;94097.22;;;19.13;25.56
49393;BME280;35268;42.642;23.308;2022-10-19T12:29:27;94098.97;;;19.29;25.73
49393;BME280;35268;42.642;23.308;2022-10-19T12:31:55;94097.44;;;19.28;25.11
49393;BME280;35268;42.642;23.308;2022-10-19T12:39:48;94091.84;;;19.40;25.42
49393;BME280;35268;42.642;23.308;2022-10-19T12:42:23;94082.84;;;19.32;25.64
49393;BME280;35268;42.642;23.308;2022-10-19T12:45:09;94091.41;;;19.38;25.84
49393;BME280;35268;42.642;23.308;2022-10-19T12:47:39;94081.72;;;19.37;26.25
49393;BME280;35268;42.642;23.308;2022-10-19T12:50:05;94088.34;;;19.39;25.62
49393;BME280;35268;42.642;23.308;2022-10-19T12:55:28;94091.44;;;19.41;25.39
49393;BME280;35268;42.642;23.308;2022-10-19T12:58:01;94071.81;;;19.44;25.88
49393;BME280;35268;42.642;23.308;2022-10-19T13:00:31;94079.25;;;19.51;26.31
49393;BME280;35268;42.642;23.308;2022-10-19T13:03:06;94079.44;;;19.65;26.90
49393;BME280;35268;42.642;23.308;2022-10-19T13:05:38;94077.28;;;19.75;26.81
49393;BME280;35268;42.642;23.308;2022-10-19T13:08:05;94077.72;;;19.77;27.04
49393;BME280;35268;42.642;23.308;2022-10-19T13:10:32;94085.13;;;19.83;26.55
49393;BME280;35268;42.642;23.308;2022-10-19T13:12:58;94080.88;;;19.82;27.62
49393;BME280;35268;42.642;23.308;2022-10-19T13:15:48;94081.72;;;19.87;26.61
49393;BME280;35268;42.642;23.308;2022-10-19T13:18:15;94067.31;;;19.79;25.83
49393;BME280;35268;42.642;23.308;2022-10-19T13:21:00;94063.63;;;19.68;26.75
49393;BME280;35268;42.642;23.308;2022-10-19T13:26:30;94063.84;;;20.12;26.40
49393;BME280;35268;42.642;23.308;2022-10-19T13:28:57;94062.06;;;20.23;26.61
49393;BME280;35268;42.642;23.308;2022-10-19T13:31:27;94069.47;;;20.30;26.37
49393;BME280;35268;42.642;23.308;2022-10-19T13:33:54;94064.81;;;20.31;26.97
49393;BME280;35268;42.642;23.308;2022-10-19T13:36:20;94067.28;;;20.43;27.19
49393;BME280;35268;42.642;23.308;2022-10-19T13:38:47;94063.53;;;20.55;27.01
49393;BME280;35268;42.642;23.308;2022-10-19T13:41:44;94048.81;;;20.52;27.37
49393;BME280;35268;42.642;23.308;2022-10-19T13:47:36;94059.16;;;20.77;26.81
49393;BME280;35268;42.642;23.308;2022-10-19T13:49:38;94060.06;;;20.92;27.11
49393;BME280;35268;42.642;23.308;2022-10-19T14:08:22;94031.25;;;21.83;25.99
49393;BME280;35268;42.642;23.308;2022-10-19T14:11:02;94027.94;;;22.19;25.36
49393;BME280;35268;42.642;23.308;2022-10-19T14:13:28;94029.97;;;22.40;25.10
49393;BME280;35268;42.642;23.308;2022-10-19T14:15:55;94024.91;;;22.42;24.95
49393;BME280;35268;42.642;23.308;2022-10-19T14:18:32;94033.13;;;22.60;24.80
49393;BME280;35268;42.642;23.308;2022-10-19T14:21:00;94035.44;;;22.65;24.47
49393;BME280;35268;42.642;23.308;2022-10-19T14:23:31;94033.88;;;22.53;24.75
49393;BME280;35268;42.642;23.308;2022-10-19T14:26:00;94031.16;;;22.53;25.18
49393;BME280;35268;42.642;23.308;2022-10-19T14:28:28;94024.53;;;22.40;25.03
49393;BME280;35268;42.642;23.308;2022-10-19T14:31:04;94038.78;;;22.22;25.41
49393;BME280;35268;42.642;23.308;2022-10-19T14:33:33;94040.53;;;21.72;25.80
49393;BME280;35268;42.642;23.308;2022-10-19T14:36:00;94046.03;;;21.31;26.89
49393;BME280;35268;42.642;23.308;2022-10-19T14:38:33;94044.94;;;20.87;27.94
49393;BME280;35268;42.642;23.308;2022-10-19T14:41:03;94054.50;;;20.40;28.05
49393;BME280;35268;42.642;23.308;2022-10-19T14:43:32;94048.91;;;19.92;28.40
49393;BME280;35268;42.642;23.308;2022-10-19T14:48:36;94054.41;;;18.92;30.02
49393;BME280;35268;42.642;23.308;2022-10-19T14:51:08;94057.97;;;18.54;31.49
49393;BME280;35268;42.642;23.308;2022-10-19T14:56:19;94061.38;;;18.08;32.59